DAL4001 KLAX-KSAN
Flight info
| Callsign | DAL4001 |
|---|---|
| Flight time | 0h 29m |
| Altitude | 13000 |
| Route | LAXX1 MZB |
| Aircraft | A21N/M-SDE2E3FGHIRWXY/LB1 |
Departure
| Time | 2026-04-26 00:57 |
|---|---|
| Airport | Los Angeles International Airport (KLAX) |
Arrival
| Time | 2026-04-26 01:27 |
|---|---|
| Airport | San Diego International Airport (KSAN) |
| Time | Latitude | Longitude | Altitude | Speed | Heading |
|---|---|---|---|---|---|
| 2026-04-26 00:31 | 33.94127 | -118.40269 | 125 ft | 0 kts | 71° |
| 2026-04-26 00:45 | 33.94126 | -118.40271 | 123 ft | 2 kts | 71° |
| 2026-04-26 00:46 | 33.94121 | -118.40290 | 127 ft | 2 kts | 71° |
| 2026-04-26 00:46 | 33.94117 | -118.40309 | 128 ft | 2 kts | 97° |
| 2026-04-26 00:46 | 33.94125 | -118.40324 | 128 ft | 2 kts | 164° |
| 2026-04-26 00:46 | 33.94141 | -118.40327 | 125 ft | 2 kts | 172° |
| 2026-04-26 00:47 | 33.94157 | -118.40330 | 125 ft | 2 kts | 172° |
| 2026-04-26 00:47 | 33.94161 | -118.40330 | 127 ft | 0 kts | 172° |
| 2026-04-26 00:48 | 33.94155 | -118.40329 | 126 ft | 0 kts | 173° |
| 2026-04-26 00:50 | 33.94152 | -118.40329 | 126 ft | 5 kts | 173° |
| 2026-04-26 00:50 | 33.94111 | -118.40323 | 124 ft | 0 kts | 173° |
| 2026-04-26 00:52 | 33.94060 | -118.40314 | 126 ft | 11 kts | 170° |
| 2026-04-26 00:52 | 33.93979 | -118.40300 | 126 ft | 13 kts | 173° |
| 2026-04-26 00:52 | 33.93888 | -118.40286 | 126 ft | 13 kts | 168° |
| 2026-04-26 00:53 | 33.93855 | -118.40200 | 126 ft | 14 kts | 95° |
| 2026-04-26 00:53 | 33.93866 | -118.40075 | 125 ft | 16 kts | 82° |
| 2026-04-26 00:53 | 33.93883 | -118.39929 | 124 ft | 19 kts | 82° |
| 2026-04-26 00:53 | 33.93902 | -118.39763 | 126 ft | 21 kts | 83° |
| 2026-04-26 00:54 | 33.93921 | -118.39581 | 129 ft | 23 kts | 83° |
| 2026-04-26 00:54 | 33.93941 | -118.39376 | 124 ft | 26 kts | 83° |
| 2026-04-26 00:54 | 33.93964 | -118.39150 | 125 ft | 28 kts | 81° |
| 2026-04-26 00:54 | 33.93992 | -118.38910 | 129 ft | 30 kts | 83° |
| 2026-04-26 00:55 | 33.94017 | -118.38660 | 128 ft | 31 kts | 83° |
| 2026-04-26 00:55 | 33.94042 | -118.38413 | 125 ft | 17 kts | 83° |
| 2026-04-26 00:55 | 33.94046 | -118.38365 | 129 ft | 20 kts | 84° |
| 2026-04-26 00:55 | 33.94061 | -118.38200 | 129 ft | 3 kts | 82° |
| 2026-04-26 00:56 | 33.94073 | -118.38053 | 129 ft | 25 kts | 100° |
| 2026-04-26 00:56 | 33.93976 | -118.38057 | 127 ft | 18 kts | 261° |
| 2026-04-26 00:56 | 33.93946 | -118.38376 | 128 ft | 69 kts | 263° |
| 2026-04-26 00:56 | 33.93859 | -118.39231 | 128 ft | 137 kts | 263° |
| 2026-04-26 00:57 | 33.93723 | -118.40563 | 252 ft | 174 kts | 263° |
| 2026-04-26 00:57 | 33.93560 | -118.42084 | 620 ft | 191 kts | 262° |
| 2026-04-26 00:57 | 33.93373 | -118.43719 | 1104 ft | 203 kts | 261° |
| 2026-04-26 00:57 | 33.93155 | -118.45436 | 1600 ft | 216 kts | 262° |
| 2026-04-26 00:58 | 33.92885 | -118.47250 | 2157 ft | 226 kts | 256° |
| 2026-04-26 00:58 | 33.92109 | -118.48954 | 2634 ft | 245 kts | 224° |
| 2026-04-26 00:58 | 33.90732 | -118.50214 | 3524 ft | 250 kts | 218° |
| 2026-04-26 00:58 | 33.89362 | -118.51521 | 4557 ft | 252 kts | 223° |
| 2026-04-26 00:59 | 33.88088 | -118.52974 | 5515 ft | 254 kts | 227° |
| 2026-04-26 00:59 | 33.86884 | -118.54543 | 6511 ft | 255 kts | 230° |
| 2026-04-26 00:59 | 33.85720 | -118.56180 | 7050 ft | 262 kts | 232° |
| 2026-04-26 00:59 | 33.84584 | -118.57890 | 6701 ft | 261 kts | 234° |
| 2026-04-26 01:00 | 33.83467 | -118.59617 | 6534 ft | 261 kts | 233° |
| 2026-04-26 01:00 | 33.82342 | -118.61327 | 6449 ft | 260 kts | 232° |
| 2026-04-26 01:00 | 33.81003 | -118.62729 | 6424 ft | 261 kts | 212° |
| 2026-04-26 01:00 | 33.79298 | -118.63530 | 6751 ft | 268 kts | 195° |
| 2026-04-26 01:01 | 33.77448 | -118.63937 | 7464 ft | 271 kts | 192° |
| 2026-04-26 01:01 | 33.75585 | -118.64276 | 7876 ft | 270 kts | 192° |
| 2026-04-26 01:01 | 33.73725 | -118.64601 | 7988 ft | 270 kts | 191° |
| 2026-04-26 01:01 | 33.71863 | -118.64924 | 7992 ft | 271 kts | 191° |
| 2026-04-26 01:02 | 33.69989 | -118.65250 | 8254 ft | 273 kts | 191° |
| 2026-04-26 01:02 | 33.68091 | -118.65559 | 9080 ft | 276 kts | 188° |
| 2026-04-26 01:02 | 33.66170 | -118.65277 | 10033 ft | 285 kts | 163° |
| 2026-04-26 01:02 | 33.64441 | -118.64024 | 10581 ft | 310 kts | 141° |
| 2026-04-26 01:03 | 33.63107 | -118.61855 | 10899 ft | 340 kts | 119° |
| 2026-04-26 01:03 | 33.62188 | -118.59133 | 11233 ft | 363 kts | 112° |
| 2026-04-26 01:03 | 33.61343 | -118.56193 | 11601 ft | 382 kts | 111° |
| 2026-04-26 01:03 | 33.60474 | -118.53119 | 12069 ft | 395 kts | 111° |
| 2026-04-26 01:04 | 33.59587 | -118.49963 | 12649 ft | 404 kts | 111° |
| 2026-04-26 01:04 | 33.58688 | -118.46740 | 12937 ft | 409 kts | 111° |
| 2026-04-26 01:04 | 33.57789 | -118.43505 | 13004 ft | 410 kts | 111° |
| 2026-04-26 01:04 | 33.56886 | -118.40258 | 13001 ft | 411 kts | 111° |
| 2026-04-26 01:05 | 33.55994 | -118.37049 | 13004 ft | 411 kts | 111° |
| 2026-04-26 01:05 | 33.55105 | -118.33791 | 12999 ft | 411 kts | 111° |
| 2026-04-26 01:05 | 33.54234 | -118.30525 | 13001 ft | 411 kts | 111° |
| 2026-04-26 01:05 | 33.53375 | -118.27269 | 13000 ft | 411 kts | 111° |
| 2026-04-26 01:06 | 33.52514 | -118.23990 | 12998 ft | 411 kts | 111° |
| 2026-04-26 01:06 | 33.51654 | -118.20729 | 13006 ft | 411 kts | 111° |
| 2026-04-26 01:06 | 33.50792 | -118.17461 | 12994 ft | 411 kts | 111° |
| 2026-04-26 01:06 | 33.49929 | -118.14197 | 12993 ft | 411 kts | 112° |
| 2026-04-26 01:07 | 33.48722 | -118.11143 | 12995 ft | 404 kts | 125° |
| 2026-04-26 01:07 | 33.47231 | -118.08299 | 12994 ft | 403 kts | 128° |
| 2026-04-26 01:07 | 33.45678 | -118.05515 | 12995 ft | 402 kts | 129° |
| 2026-04-26 01:07 | 33.44129 | -118.02787 | 12992 ft | 401 kts | 129° |
| 2026-04-26 01:08 | 33.42555 | -118.00037 | 12995 ft | 400 kts | 130° |
| 2026-04-26 01:08 | 33.40977 | -117.97287 | 12994 ft | 400 kts | 130° |
| 2026-04-26 01:08 | 33.39402 | -117.94546 | 12990 ft | 399 kts | 130° |
| 2026-04-26 01:08 | 33.37831 | -117.91813 | 12995 ft | 398 kts | 130° |
| 2026-04-26 01:09 | 33.36260 | -117.89086 | 12994 ft | 398 kts | 130° |
| 2026-04-26 01:09 | 33.34689 | -117.86361 | 12997 ft | 398 kts | 130° |
| 2026-04-26 01:09 | 33.33118 | -117.83638 | 12991 ft | 398 kts | 130° |
| 2026-04-26 01:09 | 33.31544 | -117.80912 | 12999 ft | 398 kts | 130° |
| 2026-04-26 01:10 | 33.29970 | -117.78188 | 12999 ft | 398 kts | 130° |
| 2026-04-26 01:10 | 33.28394 | -117.75462 | 13000 ft | 399 kts | 130° |
| 2026-04-26 01:10 | 33.26839 | -117.72774 | 12998 ft | 399 kts | 130° |
| 2026-04-26 01:10 | 33.25263 | -117.70052 | 13003 ft | 399 kts | 130° |
| 2026-04-26 01:11 | 33.23687 | -117.67331 | 12994 ft | 399 kts | 130° |
| 2026-04-26 01:11 | 33.22109 | -117.64609 | 13004 ft | 398 kts | 130° |
| 2026-04-26 01:11 | 33.20530 | -117.61889 | 13004 ft | 398 kts | 130° |
| 2026-04-26 01:11 | 33.18953 | -117.59173 | 13004 ft | 398 kts | 130° |
| 2026-04-26 01:12 | 33.17374 | -117.56457 | 13004 ft | 398 kts | 130° |
| 2026-04-26 01:12 | 33.15792 | -117.53743 | 13005 ft | 398 kts | 130° |
| 2026-04-26 01:12 | 33.14231 | -117.51063 | 13005 ft | 399 kts | 130° |
| 2026-04-26 01:12 | 33.12641 | -117.48333 | 12873 ft | 405 kts | 130° |
| 2026-04-26 01:13 | 33.11022 | -117.45561 | 12576 ft | 407 kts | 130° |
| 2026-04-26 01:13 | 33.09418 | -117.42808 | 11997 ft | 402 kts | 130° |
| 2026-04-26 01:13 | 33.07841 | -117.40098 | 11607 ft | 391 kts | 130° |
| 2026-04-26 01:13 | 33.06313 | -117.37482 | 11172 ft | 380 kts | 130° |
| 2026-04-26 01:14 | 33.04778 | -117.34950 | 10674 ft | 373 kts | 131° |
| 2026-04-26 01:14 | 33.03261 | -117.32487 | 10189 ft | 362 kts | 131° |
| 2026-04-26 01:14 | 33.01806 | -117.30146 | 9692 ft | 342 kts | 131° |
| 2026-04-26 01:14 | 33.00423 | -117.27938 | 9190 ft | 323 kts | 131° |
| 2026-04-26 01:15 | 32.99137 | -117.25893 | 8933 ft | 301 kts | 131° |
| 2026-04-26 01:15 | 32.97925 | -117.23963 | 8943 ft | 286 kts | 131° |
| 2026-04-26 01:15 | 32.96770 | -117.22110 | 9003 ft | 272 kts | 131° |
| 2026-04-26 01:15 | 32.95672 | -117.20327 | 8985 ft | 265 kts | 131° |
| 2026-04-26 01:16 | 32.94591 | -117.18567 | 8974 ft | 261 kts | 131° |
| 2026-04-26 01:16 | 32.93530 | -117.16833 | 8974 ft | 257 kts | 131° |
| 2026-04-26 01:16 | 32.92491 | -117.15107 | 8974 ft | 256 kts | 131° |
| 2026-04-26 01:16 | 32.91456 | -117.13386 | 8981 ft | 256 kts | 131° |
| 2026-04-26 01:17 | 32.90436 | -117.11690 | 8915 ft | 255 kts | 131° |
| 2026-04-26 01:17 | 32.89398 | -117.09975 | 8444 ft | 257 kts | 131° |
| 2026-04-26 01:17 | 32.88334 | -117.08245 | 7819 ft | 261 kts | 130° |
| 2026-04-26 01:17 | 32.87232 | -117.06499 | 7215 ft | 266 kts | 130° |
| 2026-04-26 01:18 | 32.86111 | -117.04767 | 6809 ft | 262 kts | 130° |
| 2026-04-26 01:18 | 32.85001 | -117.03070 | 6435 ft | 259 kts | 130° |
| 2026-04-26 01:18 | 32.83908 | -117.01395 | 6082 ft | 253 kts | 130° |
| 2026-04-26 01:18 | 32.82847 | -116.99786 | 5968 ft | 245 kts | 131° |
| 2026-04-26 01:19 | 32.81793 | -116.98192 | 5967 ft | 246 kts | 131° |
| 2026-04-26 01:19 | 32.80767 | -116.96628 | 5963 ft | 238 kts | 131° |
| 2026-04-26 01:19 | 32.79779 | -116.95095 | 5765 ft | 230 kts | 131° |
| 2026-04-26 01:19 | 32.78814 | -116.93595 | 5523 ft | 228 kts | 131° |
| 2026-04-26 01:20 | 32.77851 | -116.92105 | 5311 ft | 227 kts | 130° |
| 2026-04-26 01:20 | 32.76885 | -116.90628 | 5089 ft | 225 kts | 131° |
| 2026-04-26 01:20 | 32.75812 | -116.89315 | 4848 ft | 218 kts | 154° |
| 2026-04-26 01:20 | 32.74400 | -116.88848 | 4621 ft | 210 kts | 183° |
| 2026-04-26 01:21 | 32.72954 | -116.88948 | 4378 ft | 207 kts | 190° |
| 2026-04-26 01:21 | 32.71560 | -116.89148 | 4184 ft | 202 kts | 191° |
| 2026-04-26 01:21 | 32.70158 | -116.89389 | 4169 ft | 204 kts | 196° |
| 2026-04-26 01:21 | 32.68966 | -116.90210 | 4171 ft | 199 kts | 231° |
| 2026-04-26 01:22 | 32.68290 | -116.91619 | 4182 ft | 199 kts | 248° |
| 2026-04-26 01:22 | 32.67800 | -116.93167 | 3997 ft | 200 kts | 251° |
| 2026-04-26 01:22 | 32.67643 | -116.94794 | 3797 ft | 200 kts | 274° |
| 2026-04-26 01:22 | 32.67896 | -116.96425 | 3781 ft | 201 kts | 284° |
| 2026-04-26 01:23 | 32.68281 | -116.98024 | 3792 ft | 202 kts | 284° |
| 2026-04-26 01:23 | 32.68674 | -116.99624 | 3779 ft | 203 kts | 284° |
| 2026-04-26 01:23 | 32.69063 | -117.01213 | 3731 ft | 202 kts | 284° |
| 2026-04-26 01:23 | 32.69459 | -117.02807 | 3635 ft | 200 kts | 284° |
| 2026-04-26 01:24 | 32.69833 | -117.04375 | 3389 ft | 194 kts | 283° |
| 2026-04-26 01:24 | 32.70201 | -117.05888 | 3111 ft | 189 kts | 283° |
| 2026-04-26 01:24 | 32.70546 | -117.07382 | 2737 ft | 185 kts | 282° |
| 2026-04-26 01:24 | 32.70926 | -117.08838 | 2291 ft | 183 kts | 283° |
| 2026-04-26 01:25 | 32.71290 | -117.10292 | 1795 ft | 184 kts | 283° |
| 2026-04-26 01:25 | 32.71624 | -117.11735 | 1375 ft | 178 kts | 279° |
| 2026-04-26 01:25 | 32.71942 | -117.13110 | 993 ft | 168 kts | 285° |
| 2026-04-26 01:25 | 32.72238 | -117.14381 | 688 ft | 157 kts | 283° |
| 2026-04-26 01:26 | 32.72531 | -117.15553 | 489 ft | 140 kts | 284° |
| 2026-04-26 01:26 | 32.72785 | -117.16627 | 297 ft | 139 kts | 282° |
| 2026-04-26 01:26 | 32.73070 | -117.17792 | 104 ft | 147 kts | 284° |
| 2026-04-26 01:26 | 32.73338 | -117.18882 | 33 ft | 127 kts | 285° |
| 2026-04-26 01:27 | 32.73487 | -117.19496 | 29 ft | 19 kts | 286° |
| 2026-04-26 01:27 | 32.73520 | -117.19632 | 31 ft | 29 kts | 287° |
| 2026-04-26 01:27 | 32.73573 | -117.19846 | 32 ft | 29 kts | 285° |
| 2026-04-26 01:27 | 32.73622 | -117.20079 | 29 ft | 32 kts | 273° |
| 2026-04-26 01:28 | 32.73580 | -117.20220 | 28 ft | 0 kts | 204° |
| 2026-04-26 01:29 | 32.73534 | -117.20205 | 28 ft | 6 kts | 102° |
| 2026-04-26 01:29 | 32.73532 | -117.20149 | 28 ft | 8 kts | 95° |
| 2026-04-26 01:29 | 32.73519 | -117.20077 | 28 ft | 10 kts | 104° |
| 2026-04-26 01:30 | 32.73513 | -117.20051 | 28 ft | 0 kts | 107° |
| 2026-04-26 01:30 | 32.73512 | -117.20047 | 28 ft | 5 kts | 107° |
| 2026-04-26 01:30 | 32.73455 | -117.19958 | 29 ft | 18 kts | 149° |
| 2026-04-26 01:30 | 32.73380 | -117.19905 | 29 ft | 1 kts | 148° |
| 2026-04-26 01:31 | 32.73375 | -117.19901 | 29 ft | 0 kts | 148° |